MAPA DE AEROPUERTO

INFORMACIÓN METAR y TAF


Deprecated: The each() function is deprecated. This message will be suppressed on further calls in /home/customer/www/clickair-va.com/public_html/VAM/vam/helpers/get_metar.php on line 20
METAR FOR BIVM
ADDS - METARS form results

(1940 UTC 26 January 2023)
Data provider http://aviationweather.gov/metar/data/
 
Forecast for: BIVM (VESTMANNAEYJAR (, IS)
Text: TAF BIVM 261619Z 2617/2619 23020KT 0800 DZRA FG BKN001
Forecast period: 1700 to 1900 UTC 26 January 2023
Forecast type: FROM: standard forecast or significant change
Winds: from the SW (230 degrees) at 23 MPH (20 knots; 10.3 m/s)
Visibility: 0.50 miles (0.80 km)
Ceiling: 100 feet AGL
Clouds: broken clouds at 100 feet AGL
Weather: DZ RA FG  (moderate drizzle, moderate rain, fog)